^^
WestSenecaWeather Station Historical Data
 
Daily Summary for February 24, 2017 Units:  English    Metric   Both
Daily Weekly Monthly Yearly Custom
  Current: High: Low: Average:
Temperature: 68.4 °F 72.1 °F 42.3 °F 51.1 °F
Dew Point: 55.7 °F 58.6 °F 39.3 °F 46.6 °F
Humidity: 64% 98% 59% 86%
Wind Speed: 5.0mph 16.1mph 0.0mph 6.1mph
Wind Gust: 5.0mph 16.1mph - -
WindSSE - - South
Pressure: 29.62 in 29.85 in 29.62 in -
Precipitation: 0.37 in      
Historical Graphs
 
 
Tabular Data for February 24, 2017
Time Temperature Dew Point Pressure Wind Wind Speed Wind Gust Humidity Rainfall Rate (Hourly) solar
00:00 42.4 °F 39.7 °F 29.83 in NNE 3.0 mph 3.0 mph 90% 0.00 in 0.0 W/m2
00:05 42.4 °F 39.7 °F 29.83 in North 3.5 mph 3.5 mph 90% 0.00 in 0.0 W/m2
00:10 42.3 °F 39.6 °F 29.83 in NE 2.3 mph 2.3 mph 90% 0.00 in 0.0 W/m2
00:15 42.4 °F 39.7 °F 29.82 in North 4.6 mph 4.6 mph 90% 0.00 in 0.0 W/m2
00:20 42.3 °F 39.6 °F 29.82 in NE 3.5 mph 3.5 mph 90% 0.00 in 0.0 W/m2
00:25 42.3 °F 39.6 °F 29.82 in NE 2.3 mph 2.3 mph 90% 0.00 in 0.0 W/m2
00:30 42.3 °F 39.3 °F 29.83 in NNE 3.5 mph 3.5 mph 89% 0.00 in 0.0 W/m2
00:31 42.4 °F 39.4 °F 29.83 in North 3.5 mph 3.5 mph 89% 0.00 in 0.0 W/m2
00:36 42.4 °F 39.4 °F 29.83 in NE 2.3 mph 2.3 mph 89% 0.00 in 0.0 W/m2
00:41 42.5 °F 39.5 °F 29.83 in Calm     89% 0.00 in 0.0 W/m2
00:46 42.5 °F 39.5 °F 29.83 in NNE 2.3 mph 2.3 mph 89% 0.00 in 0.0 W/m2
00:51 42.5 °F 39.5 °F 29.83 in North 3.5 mph 3.5 mph 89% 0.00 in 0.0 W/m2
00:56 42.6 °F 39.6 °F 29.83 in North 3.5 mph 3.5 mph 89% 0.00 in 0.0 W/m2
01:01 42.8 °F 39.8 °F 29.83 in North 3.5 mph 3.5 mph 89% 0.00 in 0.0 W/m2
01:06 42.9 °F 39.9 °F 29.84 in North 3.0 mph 3.0 mph 89% 0.00 in 0.0 W/m2
01:11 43.0 °F 40.0 °F 29.84 in North 4.6 mph 4.6 mph 89% 0.00 in 0.0 W/m2
01:16 43.1 °F 39.8 °F 29.84 in North 3.5 mph 3.5 mph 88% 0.00 in 0.0 W/m2
01:21 43.2 °F 39.9 °F 29.84 in North 4.6 mph 4.6 mph 88% 0.00 in 0.0 W/m2
01:26 43.4 °F 40.1 °F 29.84 in North 5.0 mph 5.0 mph 88% 0.00 in 0.0 W/m2
01:31 43.5 °F 39.9 °F 29.85 in North 6.9 mph 6.9 mph 87% 0.00 in 0.0 W/m2
01:36 43.6 °F 40.0 °F 29.84 in North 8.1 mph 8.1 mph 87% 0.00 in 0.0 W/m2
01:41 43.7 °F 40.1 °F 29.84 in North 8.1 mph 8.1 mph 87% 0.00 in 0.0 W/m2
01:46 43.7 °F 40.1 °F 29.84 in NNE 5.8 mph 5.8 mph 87% 0.00 in 0.0 W/m2
01:51 43.7 °F 40.1 °F 29.84 in NE 6.9 mph 6.9 mph 87% 0.00 in 0.0 W/m2
01:56 43.6 °F 40.0 °F 29.84 in North 11.5 mph 11.5 mph 87% 0.00 in 0.0 W/m2
02:01 43.7 °F 40.1 °F 29.84 in North 9.0 mph 9.0 mph 87% 0.00 in 0.0 W/m2
02:06 43.7 °F 40.1 °F 29.84 in North 4.6 mph 4.6 mph 87% 0.00 in 0.0 W/m2
02:11 43.8 °F 40.2 °F 29.84 in NNE 7.0 mph 7.0 mph 87% 0.00 in 0.0 W/m2
02:16 43.9 °F 40.3 °F 29.84 in North 6.9 mph 6.9 mph 87% 0.00 in 0.0 W/m2
02:21 44.0 °F 40.4 °F 29.83 in North 5.8 mph 5.8 mph 87% 0.00 in 0.0 W/m2
02:26 44.1 °F 40.2 °F 29.83 in North 8.1 mph 8.1 mph 86% 0.00 in 0.0 W/m2
02:31 44.2 °F 40.3 °F 29.83 in NNE 9.0 mph 9.0 mph 86% 0.00 in 0.0 W/m2
02:36 44.2 °F 40.3 °F 29.83 in North 4.0 mph 4.0 mph 86% 0.00 in 0.0 W/m2
02:41 44.2 °F 40.3 °F 29.83 in North 9.2 mph 9.2 mph 86% 0.00 in 0.0 W/m2
02:46 44.3 °F 40.4 °F 29.83 in North 7.0 mph 7.0 mph 86% 0.00 in 0.0 W/m2
02:51 44.3 °F 40.1 °F 29.82 in NNE 8.0 mph 8.0 mph 85% 0.00 in 0.0 W/m2
02:56 44.2 °F 40.0 °F 29.81 in ENE 9.2 mph 9.2 mph 85% 0.00 in 0.0 W/m2
03:01 44.1 °F 39.9 °F 29.81 in North 9.2 mph 9.2 mph 85% 0.00 in 0.0 W/m2
03:06 44.1 °F 40.2 °F 29.81 in ENE 5.0 mph 5.0 mph 86% 0.00 in 0.0 W/m2
03:11 44.1 °F 40.2 °F 29.81 in ENE 6.9 mph 6.9 mph 86% 0.00 in 0.0 W/m2
03:16 44.1 °F 40.2 °F 29.81 in ENE 4.6 mph 4.6 mph 86% 0.00 in 0.0 W/m2
03:21 44.2 °F 40.3 °F 29.81 in NE 4.6 mph 4.6 mph 86% 0.00 in 0.0 W/m2
03:26 44.2 °F 40.3 °F 29.81 in ENE 5.8 mph 5.8 mph 86% 0.00 in 0.0 W/m2
03:31 44.3 °F 40.4 °F 29.81 in NE 9.2 mph 9.2 mph 86% 0.00 in 0.0 W/m2
03:36 44.3 °F 40.7 °F 29.80 in NE 8.1 mph 8.1 mph 87% 0.00 in 0.0 W/m2
03:41 44.3 °F 40.7 °F 29.80 in North 4.6 mph 4.6 mph 87% 0.00 in 0.0 W/m2
03:46 44.2 °F 40.6 °F 29.80 in North 5.8 mph 5.8 mph 87% 0.00 in 0.0 W/m2
03:51 44.1 °F 40.8 °F 29.80 in North 8.1 mph 8.1 mph 88% 0.00 in 0.0 W/m2
03:56 44.0 °F 40.7 °F 29.79 in North 5.8 mph 5.8 mph 88% 0.00 in 0.0 W/m2
04:01 43.9 °F 40.6 °F 29.80 in NNE 6.0 mph 6.0 mph 88% 0.00 in 0.0 W/m2
04:06 43.8 °F 40.8 °F 29.80 in NNE 3.0 mph 3.0 mph 89% 0.00 in 0.0 W/m2
04:11 43.8 °F 40.8 °F 29.80 in NNE 3.5 mph 3.5 mph 89% 0.00 in 0.0 W/m2
04:16 43.8 °F 40.8 °F 29.80 in NNE 5.8 mph 5.8 mph 89% 0.00 in 0.0 W/m2
04:21 43.8 °F 40.8 °F 29.79 in NNE 4.6 mph 4.6 mph 89% 0.00 in 0.0 W/m2
04:26 43.9 °F 40.9 °F 29.79 in NNE 4.6 mph 4.6 mph 89% 0.00 in 0.0 W/m2
04:31 44.0 °F 41.0 °F 29.79 in NNE 4.6 mph 4.6 mph 89% 0.00 in 0.0 W/m2
04:36 44.0 °F 41.0 °F 29.80 in North 5.8 mph 5.8 mph 89% 0.00 in 0.0 W/m2
04:41 43.9 °F 40.9 °F 29.80 in North 5.8 mph 5.8 mph 89% 0.00 in 0.0 W/m2
04:46 43.8 °F 41.1 °F 29.80 in North 4.6 mph 4.6 mph 90% 0.00 in 0.0 W/m2
04:51 43.6 °F 40.9 °F 29.79 in North 6.9 mph 6.9 mph 90% 0.00 in 0.0 W/m2
04:56 43.5 °F 41.0 °F 29.79 in North 4.6 mph 4.6 mph 91% 0.00 in 0.0 W/m2
05:01 43.4 °F 40.9 °F 29.78 in NNE 6.9 mph 6.9 mph 91% 0.01 in 0.0 W/m2
05:06 43.3 °F 40.8 °F 29.78 in ENE 9.0 mph 9.0 mph 91% 0.01 in 0.0 W/m2
05:11 43.3 °F 41.1 °F 29.78 in North 9.2 mph 9.2 mph 92% 0.01 in 0.0 W/m2
05:16 43.3 °F 41.1 °F 29.78 in North 8.1 mph 8.1 mph 92% 0.01 in 0.0 W/m2
05:21 43.4 °F 41.5 °F 29.78 in North 5.0 mph 5.0 mph 93% 0.02 in 0.0 W/m2
05:26 43.5 °F 41.6 °F 29.78 in North 5.8 mph 5.8 mph 93% 0.02 in 0.0 W/m2
05:31 43.5 °F 41.6 °F 29.77 in ENE 3.5 mph 3.6 mph 93% 0.03 in 0.0 W/m2
05:36 43.6 °F 41.7 °F 29.77 in ENE 9.2 mph 9.2 mph 93% 0.04 in 0.0 W/m2
05:41 43.7 °F 41.8 °F 29.77 in North 6.9 mph 6.9 mph 93% 0.05 in 0.0 W/m2
05:46 43.7 °F 42.1 °F 29.77 in ENE 4.6 mph 4.6 mph 94% 0.06 in 0.0 W/m2
05:51 43.7 °F 42.1 °F 29.78 in ENE 4.6 mph 4.6 mph 94% 0.08 in 0.0 W/m2
05:56 43.8 °F 42.2 °F 29.78 in NNE 3.5 mph 3.5 mph 94% 0.09 in 0.0 W/m2
06:01 43.7 °F 42.1 °F 29.78 in ENE 4.0 mph 4.0 mph 94% 0.10 in 0.0 W/m2
06:06 43.8 °F 42.2 °F 29.79 in NNE 4.6 mph 4.6 mph 94% 0.12 in 0.0 W/m2
06:11 43.8 °F 42.5 °F 29.77 in North 4.6 mph 5.0 mph 95% 0.13 in 0.0 W/m2
06:16 43.7 °F 42.4 °F 29.77 in North 5.8 mph 5.8 mph 95% 0.15 in 0.0 W/m2
06:21 43.7 °F 42.4 °F 29.77 in ENE 6.9 mph 6.9 mph 95% 0.14 in 0.0 W/m2
06:26 43.6 °F 42.3 °F 29.77 in ENE 6.9 mph 6.9 mph 95% 0.14 in 0.0 W/m2
06:31 43.7 °F 42.4 °F 29.77 in East 4.6 mph 4.6 mph 95% 0.13 in 0.0 W/m2
06:36 43.7 °F 42.4 °F 29.76 in ENE 8.1 mph 8.1 mph 95% 0.13 in 0.0 W/m2
06:41 43.8 °F 42.5 °F 29.76 in ENE 5.0 mph 8.0 mph 95% 0.00 in 0.0 W/m2
06:43 43.8 °F 42.5 °F 29.76 in NE 8.1 mph 8.1 mph 95% 0.13 in 0.0 W/m2
06:48 43.8 °F 42.5 °F 29.75 in North 7.0 mph 7.0 mph 95% 0.14 in 0.0 W/m2
06:53 43.8 °F 42.5 °F 29.75 in ENE 5.8 mph 5.8 mph 95% 0.13 in 0.0 W/m2
06:58 43.9 °F 42.6 °F 29.76 in North 8.1 mph 8.1 mph 95% 0.11 in 0.0 W/m2
07:03 44.0 °F 42.9 °F 29.75 in North 6.9 mph 6.9 mph 96% 0.09 in 0.0 W/m2
07:08 44.1 °F 43.0 °F 29.75 in North 5.8 mph 5.8 mph 96% 0.07 in 0.0 W/m2
07:13 44.2 °F 43.1 °F 29.75 in ENE 8.1 mph 8.1 mph 96% 0.06 in 0.0 W/m2
07:18 44.2 °F 43.1 °F 29.76 in NE 3.5 mph 3.5 mph 96% 0.05 in 0.0 W/m2
07:23 44.3 °F 43.2 °F 29.75 in NE 3.5 mph 3.5 mph 96% 0.05 in 0.0 W/m2
07:28 44.3 °F 43.2 °F 29.75 in North 3.5 mph 3.5 mph 96% 0.05 in 0.0 W/m2
07:33 44.4 °F 43.3 °F 29.75 in NE 3.5 mph 3.5 mph 96% 0.05 in 0.0 W/m2
07:34 44.4 °F 43.3 °F 29.75 in NE 5.0 mph 5.0 mph 96% 0.05 in 0.0 W/m2
07:39 44.5 °F 43.4 °F 29.74 in North 5.8 mph 5.8 mph 96% 0.04 in 0.0 W/m2
07:44 44.6 °F 43.5 °F 29.75 in NE 3.5 mph 3.5 mph 96% 0.03 in 0.0 W/m2
07:49 44.7 °F 43.6 °F 29.74 in East 6.9 mph 6.9 mph 96% 0.02 in 0.0 W/m2
07:54 44.9 °F 43.8 °F 29.74 in East 5.0 mph 5.0 mph 96% 0.01 in 0.0 W/m2
07:59 45.0 °F 43.9 °F 29.75 in North 4.6 mph 4.6 mph 96% 0.01 in 0.0 W/m2
08:04 45.1 °F 44.0 °F 29.75 in North 3.5 mph 3.5 mph 96% 0.01 in 0.0 W/m2
08:09 45.3 °F 44.2 °F 29.75 in East 6.9 mph 6.9 mph 96% 0.01 in 0.0 W/m2
08:14 45.4 °F 44.3 °F 29.75 in North 3.5 mph 3.5 mph 96% 0.01 in 0.0 W/m2
08:19 45.5 °F 44.4 °F 29.75 in ENE 3.5 mph 3.5 mph 96% 0.01 in 0.0 W/m2
08:24 45.6 °F 44.5 °F 29.75 in ENE 2.0 mph 2.0 mph 96% 0.04 in 0.0 W/m2
08:29 45.6 °F 44.5 °F 29.76 in ENE 3.5 mph 3.5 mph 96% 0.06 in 0.0 W/m2
08:34 45.7 °F 44.6 °F 29.75 in ENE 4.0 mph 4.0 mph 96% 0.08 in 0.0 W/m2
08:39 45.7 °F 44.6 °F 29.75 in East 5.0 mph 5.0 mph 96% 0.09 in 0.0 W/m2
08:44 45.8 °F 44.7 °F 29.75 in North 3.5 mph 3.5 mph 96% 0.09 in 0.0 W/m2
08:49 45.8 °F 44.7 °F 29.75 in Calm     96% 0.10 in 0.0 W/m2
08:54 45.9 °F 45.1 °F 29.75 in ENE 2.3 mph 2.3 mph 97% 0.10 in 0.0 W/m2
08:59 46.1 °F 45.3 °F 29.76 in ENE 1.2 mph 1.2 mph 97% 0.11 in 0.0 W/m2
09:04 46.2 °F 45.4 °F 29.76 in NE 3.5 mph 3.5 mph 97% 0.13 in 0.0 W/m2
09:09 46.2 °F 45.1 °F 29.75 in ENE 2.3 mph 2.3 mph 96% 0.14 in 0.0 W/m2
09:14 46.3 °F 45.2 °F 29.74 in East 3.5 mph 3.5 mph 96% 0.14 in 0.0 W/m2
09:19 46.4 °F 45.6 °F 29.73 in East 2.3 mph 2.3 mph 97% 0.15 in 0.0 W/m2
09:24 46.7 °F 45.9 °F 29.73 in East 2.3 mph 2.3 mph 97% 0.12 in 0.0 W/m2
09:29 47.0 °F 46.2 °F 29.73 in East 2.3 mph 2.3 mph 97% 0.10 in 0.0 W/m2
09:34 47.4 °F 46.6 °F 29.73 in Calm     97% 0.08 in 0.0 W/m2
09:39 47.8 °F 47.0 °F 29.72 in North 2.0 mph 2.0 mph 97% 0.07 in 0.0 W/m2
09:44 48.3 °F 47.5 °F 29.72 in East 1.2 mph 1.2 mph 97% 0.06 in 0.0 W/m2
09:49 48.7 °F 48.2 °F 29.71 in East 2.3 mph 2.3 mph 98% 0.05 in 0.0 W/m2
09:54 49.4 °F 48.9 °F 29.71 in Calm     98% 0.05 in 0.0 W/m2
09:59 50.3 °F 49.8 °F 29.71 in Calm     98% 0.04 in 0.0 W/m2
10:04 51.5 °F 51.0 °F 29.71 in Calm     98% 0.02 in 0.0 W/m2
10:10 53.3 °F 52.8 °F 29.70 in SSE 4.0 mph 4.0 mph 98% 0.01 in 0.0 W/m2
10:14 54.8 °F 54.2 °F 29.70 in SSE 3.5 mph 3.5 mph 98% 0.01 in 0.0 W/m2
10:19 56.2 °F 55.6 °F 29.70 in SSE 4.0 mph 4.0 mph 98% 0.00 in 0.0 W/m2
10:24 57.2 °F 56.6 °F 29.69 in SE 5.8 mph 5.8 mph 98% 0.00 in 0.0 W/m2
10:29 58.0 °F 57.4 °F 29.69 in South 5.0 mph 5.0 mph 98% 0.00 in 0.0 W/m2
10:34 58.9 °F 58.3 °F 29.69 in SE 10.4 mph 10.4 mph 98% 0.00 in 0.0 W/m2
10:39 60.5 °F 57.6 °F 29.69 in South 8.1 mph 8.1 mph 90% 0.00 in 0.0 W/m2
10:44 61.5 °F 57.6 °F 29.69 in SSE 10.4 mph 10.4 mph 87% 0.00 in 0.0 W/m2
10:49 62.2 °F 58.0 °F 29.68 in SSE 6.9 mph 6.9 mph 86% 0.00 in 0.0 W/m2
10:54 62.5 °F 57.9 °F 29.68 in SSE 5.8 mph 5.8 mph 85% 0.00 in 0.0 W/m2
10:59 62.9 °F 57.7 °F 29.68 in SSE 9.2 mph 9.2 mph 83% 0.00 in 0.0 W/m2
11:04 63.2 °F 57.6 °F 29.68 in SSE 12.0 mph 12.0 mph 82% 0.00 in 0.0 W/m2
11:09 63.6 °F 57.7 °F 29.68 in South 9.2 mph 9.2 mph 81% 0.00 in 0.0 W/m2
11:14 64.3 °F 58.3 °F 29.68 in SE 4.6 mph 4.6 mph 81% 0.00 in 0.0 W/m2
11:19 65.0 °F 57.6 °F 29.68 in SSW 11.5 mph 11.5 mph 77% 0.00 in 0.0 W/m2
11:24 65.6 °F 58.2 °F 29.67 in South 8.1 mph 8.1 mph 77% 0.00 in 0.0 W/m2
11:29 65.9 °F 57.7 °F 29.67 in SSW 10.4 mph 10.4 mph 75% 0.00 in 0.0 W/m2
11:34 66.3 °F 58.5 °F 29.67 in SSW 6.9 mph 6.9 mph 76% 0.00 in 0.0 W/m2
11:39 66.8 °F 58.6 °F 29.67 in SSE 10.0 mph 10.0 mph 75% 0.00 in 0.0 W/m2
11:44 67.2 °F 58.2 °F 29.67 in SSW 11.5 mph 11.5 mph 73% 0.00 in 0.0 W/m2
11:49 67.5 °F 58.5 °F 29.67 in SSW 9.0 mph 9.0 mph 73% 0.00 in 0.0 W/m2
11:54 68.0 °F 57.8 °F 29.66 in South 12.7 mph 12.7 mph 70% 0.00 in 0.0 W/m2
11:59 68.3 °F 57.7 °F 29.66 in West 16.1 mph 16.1 mph 69% 0.00 in 0.0 W/m2
12:04 68.7 °F 58.1 °F 29.66 in South 10.4 mph 10.4 mph 69% 0.00 in 0.0 W/m2
12:09 69.1 °F 58.1 °F 29.66 in SSW 11.5 mph 11.5 mph 68% 0.00 in 0.0 W/m2
12:14 69.4 °F 57.5 °F 29.66 in South 15.0 mph 15.0 mph 66% 0.00 in 0.0 W/m2
12:19 69.7 °F 58.3 °F 29.66 in SSE 9.2 mph 9.2 mph 67% 0.00 in 0.0 W/m2
12:24 70.1 °F 58.2 °F 29.65 in SW 11.5 mph 11.5 mph 66% 0.00 in 0.0 W/m2
12:30 70.8 °F 58.4 °F 29.65 in SSW 9.0 mph 9.0 mph 65% 0.00 in 0.0 W/m2
12:34 70.9 °F 58.1 °F 29.65 in South 13.8 mph 13.8 mph 64% 0.00 in 0.0 W/m2
12:39 71.3 °F 58.1 °F 29.65 in South 9.0 mph 9.0 mph 63% 0.00 in 0.0 W/m2
12:45 71.5 °F 57.8 °F 29.64 in SSE 11.5 mph 11.5 mph 62% 0.00 in 0.0 W/m2
12:49 71.7 °F 58.4 °F 29.64 in SW 5.8 mph 5.8 mph 63% 0.00 in 0.0 W/m2
12:55 72.1 °F 58.4 °F 29.64 in South 9.2 mph 9.2 mph 62% 0.00 in 0.0 W/m2
13:00 71.7 °F 57.1 °F 29.64 in SW 6.9 mph 6.9 mph 60% 0.00 in 0.0 W/m2
13:05 71.9 °F 56.8 °F 29.63 in WSW 11.5 mph 11.5 mph 59% 0.00 in 0.0 W/m2
13:10 71.9 °F 56.8 °F 29.63 in SSE 11.5 mph 11.5 mph 59% 0.00 in 0.0 W/m2
13:15 71.8 °F 57.2 °F 29.63 in South 9.2 mph 9.2 mph 60% 0.00 in 0.0 W/m2
13:20 71.7 °F 56.6 °F 29.63 in WSW 15.0 mph 15.0 mph 59% 0.00 in 0.0 W/m2
13:25 71.3 °F 56.7 °F 29.63 in West 11.5 mph 11.5 mph 60% 0.00 in 0.0 W/m2
13:30 71.2 °F 56.6 °F 29.63 in SW 11.5 mph 11.5 mph 60% 0.00 in 0.0 W/m2
13:35 71.1 °F 56.5 °F 29.63 in WSW 4.6 mph 4.6 mph 60% 0.00 in 0.0 W/m2
13:40 71.3 °F 57.2 °F 29.63 in West 6.0 mph 6.0 mph 61% 0.00 in 0.0 W/m2
13:45 71.0 °F 56.9 °F 29.62 in West 4.6 mph 4.6 mph 61% 0.00 in 0.0 W/m2
13:50 70.6 °F 56.5 °F 29.62 in West 12.0 mph 12.0 mph 61% 0.00 in 0.0 W/m2
13:55 70.2 °F 56.1 °F 29.62 in SW 6.9 mph 6.9 mph 61% 0.00 in 0.0 W/m2
14:00 69.9 °F 56.3 °F 29.62 in SW 7.0 mph 7.0 mph 62% 0.00 in 0.0 W/m2
14:05 69.6 °F 56.0 °F 29.62 in SSW 5.0 mph 5.0 mph 62% 0.00 in 0.0 W/m2
14:10 69.4 °F 56.3 °F 29.62 in South 4.6 mph 4.6 mph 63% 0.00 in 0.0 W/m2
14:15 69.1 °F 55.5 °F 29.62 in South 6.9 mph 6.9 mph 62% 0.00 in 0.0 W/m2
14:20 68.8 °F 55.7 °F 29.62 in West 5.8 mph 5.8 mph 63% 0.00 in 0.0 W/m2
14:21 68.8 °F 55.7 °F 29.62 in West 3.5 mph 3.5 mph 63% 0.00 in 0.0 W/m2
14:26 68.4 °F 55.7 °F 29.62 in SSE 5.0 mph 5.0 mph 64% 0.00 in 0.0 W/m2
west seneca weather
Compliments of Weather Underground - 4 mb